Time;durP1;ratioP1;P1;durP2;ratioP2;P2;SDS_P1;SDS_P2;PMS_P1;PMS_P2;Temp;Humidity;BMP_temperature;BMP_pressure;BME280_temperature;BME280_humidity;BME280_pressure;Samples;Min_cycle;Max_cycle;Signal;HPM_P1;HPM_P2
2022/04/20 00:01:16;;;;;;;3.53;3.23;;;;;;;6.19;100.00;99955.47;5074674;28;20600;-74
2022/04/20 00:03:43;;;;;;;4.73;3.27;;;;;;;6.05;100.00;99962.75;5074308;28;20206;-74
2022/04/20 00:06:10;;;;;;;3.10;2.83;;;;;;;6.00;100.00;99938.56;5072590;28;20266;-74
2022/04/20 00:08:36;;;;;;;3.10;2.90;;;;;;;6.08;100.00;99964.56;5070712;28;20207;-75
2022/04/20 00:11:05;;;;;;;3.00;2.77;;;;;;;5.99;100.00;99970.31;5070343;28;20191;-75
2022/04/20 00:13:32;;;;;;;3.10;2.90;;;;;;;5.92;100.00;99978.66;5070854;28;20270;-75
2022/04/20 00:15:59;;;;;;;3.63;3.17;;;;;;;5.86;100.00;99951.03;5070673;28;20205;-74
2022/04/20 00:18:25;;;;;;;3.17;2.97;;;;;;;6.03;100.00;99972.13;5069927;28;20218;-75
2022/04/20 00:20:52;;;;;;;3.47;3.13;;;;;;;6.01;100.00;99967.75;5069833;28;20562;-76
2022/04/20 00:23:19;;;;;;;3.87;3.57;;;;;;;6.06;100.00;99977.41;5070078;28;20211;-74
2022/04/20 00:25:46;;;;;;;4.00;3.70;;;;;;;6.02;100.00;99975.53;5070020;28;20199;-74
2022/04/20 00:28:14;;;;;;;8.40;4.10;;;;;;;5.82;100.00;99959.44;5070195;28;20207;-76
2022/04/20 00:30:41;;;;;;;7.77;4.23;;;;;;;5.88;100.00;99971.66;5070363;28;20195;-75
2022/04/20 00:33:08;;;;;;;7.07;4.53;;;;;;;5.80;100.00;99957.66;5034777;28;20199;-74
2022/04/20 00:35:34;;;;;;;3.93;3.63;;;;;;;5.79;100.00;99967.06;5069751;28;20226;-75
2022/04/20 00:38:01;;;;;;;4.10;3.53;;;;;;;5.76;100.00;99966.09;5069815;28;20234;-75
2022/04/20 00:40:28;;;;;;;6.37;3.57;;;;;;;5.75;100.00;99962.63;5069727;28;20207;-75
2022/04/20 00:42:55;;;;;;;5.70;3.70;;;;;;;5.69;100.00;99956.44;5062418;28;20198;-74
2022/04/20 00:45:24;;;;;;;6.30;4.20;;;;;;;5.69;100.00;99969.28;5070046;28;20198;-74
2022/04/20 00:47:54;;;;;;;4.93;3.83;;;;;;;5.64;100.00;99970.81;5034910;28;20202;-74
2022/04/20 00:50:22;;;;;;;4.83;3.90;;;;;;;5.55;100.00;99966.28;5069411;28;20318;-75
2022/04/20 00:52:49;;;;;;;5.30;3.60;;;;;;;5.49;100.00;99961.78;5070124;28;20191;-74
2022/04/20 00:55:16;;;;;;;3.80;3.50;;;;;;;5.52;100.00;99962.72;5018074;28;20213;-73
2022/04/20 00:57:43;;;;;;;11.97;4.57;;;;;;;5.46;100.00;99961.69;5069416;28;20222;-75
2022/04/20 01:00:11;;;;;;;4.93;4.43;;;;;;;5.29;100.00;99936.25;5069537;28;20199;-76
2022/04/20 01:02:39;;;;;;;4.60;4.17;;;;;;;5.59;100.00;99960.41;5070412;28;20211;-76
2022/04/20 01:05:06;;;;;;;4.23;3.93;;;;;;;5.55;100.00;99960.25;5073939;28;20203;-74
2022/04/20 01:07:36;;;;;;;4.60;4.17;;;;;;;5.57;100.00;99953.44;5022010;28;20635;-74
2022/04/20 01:10:03;;;;;;;4.83;4.27;;;;;;;5.45;100.00;99967.66;5073870;28;20221;-74
2022/04/20 01:12:30;;;;;;;4.70;4.30;;;;;;;5.36;100.00;99959.63;5073768;28;20217;-73
2022/04/20 01:14:57;;;;;;;4.63;4.23;;;;;;;5.37;100.00;99956.25;5073515;28;20205;-76
2022/04/20 01:17:24;;;;;;;4.70;4.20;;;;;;;5.41;100.00;99957.22;5073283;28;20690;-74
2022/04/20 01:19:52;;;;;;;5.13;4.63;;;;;;;5.33;100.00;99944.13;5073091;28;20207;-74
2022/04/20 01:22:20;;;;;;;5.10;4.57;;;;;;;5.22;100.00;99935.16;5073825;28;20210;-74
2022/04/20 01:24:47;;;;;;;4.47;4.07;;;;;;;5.29;100.00;99947.41;5073362;28;20639;-75
2022/04/20 01:27:14;;;;;;;5.10;4.67;;;;;;;5.32;100.00;99941.47;5073287;28;20655;-73
2022/04/20 01:29:42;;;;;;;5.00;4.30;;;;;;;5.24;100.00;99920.69;5073248;28;20207;-75
2022/04/20 01:32:09;;;;;;;5.87;4.67;;;;;;;5.42;100.00;99946.97;5073695;28;20198;-74
2022/04/20 01:34:35;;;;;;;7.57;5.27;;;;;;;5.52;100.00;99939.59;5073431;28;20268;-74
2022/04/20 01:37:02;;;;;;;8.07;5.17;;;;;;;5.44;100.00;99942.78;5073376;28;20583;-74
2022/04/20 01:39:31;;;;;;;6.53;5.00;;;;;;;5.43;100.00;99940.16;5072969;28;20671;-73
2022/04/20 01:41:57;;;;;;;7.30;5.63;;;;;;;5.38;100.00;99952.88;5073371;28;20203;-74
2022/04/20 01:44:24;;;;;;;8.67;4.70;;;;;;;5.30;100.00;99932.84;5037774;28;20199;-74
2022/04/20 01:46:51;;;;;;;6.87;5.53;;;;;;;5.40;100.00;99953.78;5034368;28;20206;-75
2022/04/20 01:49:18;;;;;;;7.17;6.03;;;;;;;5.40;100.00;99953.78;5016212;28;20565;-75
2022/04/20 01:51:54;;;;;;;7.03;6.00;;;;;;;5.44;100.00;99945.34;5073236;28;20213;-75
2022/04/20 01:54:21;;;;;;;7.50;6.47;;;;;;;5.34;100.00;99916.72;5073033;28;20264;-75
2022/04/20 01:56:51;;;;;;;8.87;6.30;;;;;;;5.49;100.00;99930.09;5073392;28;20202;-74
2022/04/20 01:59:18;;;;;;;6.40;5.80;;;;;;;5.26;100.00;99924.16;5072674;28;20318;-74
2022/04/20 02:04:29;;;;;;;9.63;5.93;;;;;;;5.15;100.00;99912.66;5073082;28;20197;-75
2022/04/20 02:06:57;;;;;;;7.13;5.37;;;;;;;5.29;100.00;99929.41;5072871;28;20199;-73
2022/04/20 02:09:25;;;;;;;8.93;6.10;;;;;;;5.19;100.00;99904.22;5073363;28;20195;-73
2022/04/20 02:11:53;;;;;;;7.60;5.70;;;;;;;5.35;100.00;99913.34;5072357;28;20345;-74
2022/04/20 02:14:19;;;;;;;7.10;6.00;;;;;;;5.38;100.00;99934.88;5072569;28;20199;-73
2022/04/20 02:16:46;;;;;;;6.23;5.67;;;;;;;5.38;100.00;99934.00;5072380;28;20210;-75
2022/04/20 02:19:13;;;;;;;7.53;6.70;;;;;;;5.36;100.00;99939.06;5071574;28;20218;-74
2022/04/20 02:21:40;;;;;;;9.47;6.37;;;;;;;5.39;100.00;99928.00;5071648;28;20289;-74
2022/04/20 02:24:07;;;;;;;8.53;6.40;;;;;;;5.22;100.00;99896.63;5072203;28;20210;-73
2022/04/20 02:26:34;;;;;;;6.90;6.00;;;;;;;5.30;100.00;99917.44;5020582;28;20232;-75
2022/04/20 02:29:02;;;;;;;7.27;6.20;;;;;;;5.38;100.00;99941.72;5053367;28;20218;-76
2022/04/20 02:31:29;;;;;;;8.10;6.30;;;;;;;5.25;100.00;99912.13;5072584;28;20248;-73
2022/04/20 02:33:56;;;;;;;13.40;5.87;;;;;;;5.40;100.00;99933.22;5072335;28;20234;-73
2022/04/20 02:36:23;;;;;;;11.30;6.43;;;;;;;5.43;100.00;99938.44;5072520;28;20667;-74
2022/04/20 02:38:50;;;;;;;8.00;6.20;;;;;;;5.50;100.00;99935.25;5071018;28;20226;-74
2022/04/20 02:41:17;;;;;;;7.40;6.63;;;;;;;5.45;100.00;99931.69;5072374;28;20203;-74
2022/04/20 02:43:44;;;;;;;7.47;6.70;;;;;;;5.40;100.00;99922.06;5072309;28;20203;-74
2022/04/20 02:46:13;;;;;;;6.70;5.93;;;;;;;5.22;100.00;99914.59;5071467;28;20268;-74
2022/04/20 02:48:41;;;;;;;15.87;6.90;;;;;;;5.32;100.00;99918.34;5071391;28;20198;-75
2022/04/20 02:51:08;;;;;;;10.80;6.57;;;;;;;5.41;100.00;99919.53;5036871;28;20215;-75
2022/04/20 02:53:35;;;;;;;9.03;6.90;;;;;;;5.48;100.00;99924.06;5071349;28;20734;-74
2022/04/20 02:56:01;;;;;;;9.53;6.67;;;;;;;5.42;100.00;99913.56;5071565;28;20931;-74
2022/04/20 02:58:28;;;;;;;10.33;6.43;;;;;;;5.54;100.00;99928.50;5071146;28;20675;-74
2022/04/20 03:00:55;;;;;;;7.23;6.10;;;;;;;5.47;100.00;99937.72;5019556;28;20199;-73
2022/04/20 03:03:23;;;;;;;8.47;7.07;;;;;;;5.46;100.00;99947.94;5071781;28;20326;-74
2022/04/20 03:05:51;;;;;;;8.07;5.87;;;;;;;5.34;100.00;99947.56;5071055;28;20342;-74
2022/04/20 03:08:18;;;;;;;6.93;5.70;;;;;;;5.29;100.00;99942.25;5035834;28;20727;-74
2022/04/20 03:10:45;;;;;;;8.33;6.20;;;;;;;5.27;100.00;99941.34;5071411;28;20202;-75
2022/04/20 03:13:12;;;;;;;8.50;6.50;;;;;;;5.35;100.00;99946.75;5071472;28;20742;-74
2022/04/20 03:15:39;;;;;;;8.83;6.53;;;;;;;5.27;100.00;99949.06;5071236;28;20203;-75
2022/04/20 03:18:06;;;;;;;8.47;6.30;;;;;;;5.19;100.00;99945.34;5070725;28;20309;-74
2022/04/20 03:20:34;;;;;;;8.83;6.17;;;;;;;5.29;100.00;99957.69;5071122;28;20252;-74
2022/04/20 03:23:01;;;;;;;9.63;6.47;;;;;;;5.11;100.00;99936.50;5033257;28;20208;-73
2022/04/20 03:25:28;;;;;;;11.50;6.90;;;;;;;5.26;100.00;99960.16;5015511;28;20199;-74
2022/04/20 03:27:54;;;;;;;9.50;6.77;;;;;;;5.20;100.00;99959.94;5060302;28;20210;-75
2022/04/20 03:30:21;;;;;;;9.07;7.37;;;;;;;5.17;100.00;99953.84;5070985;28;20251;-75
2022/04/20 03:32:48;;;;;;;13.80;7.70;;;;;;;5.20;100.00;99971.94;5070856;28;20201;-73
2022/04/20 03:35:16;;;;;;;14.07;9.73;;;;;;;5.31;100.00;99973.16;5070664;28;20229;-73
2022/04/20 03:37:44;;;;;;;18.13;10.90;;;;;;;5.26;100.00;99959.28;5035206;28;20279;-73
2022/04/20 03:40:12;;;;;;;14.27;9.67;;;;;;;5.37;100.00;99981.97;5071177;28;20207;-75
2022/04/20 03:42:38;;;;;;;18.77;12.23;;;;;;;5.35;100.00;99977.59;5035467;28;20214;-73
2022/04/20 03:45:06;;;;;;;20.47;12.57;;;;;;;5.31;100.00;99966.34;5069910;28;20202;-75
2022/04/20 03:47:33;;;;;;;19.03;12.30;;;;;;;5.41;100.00;99981.25;5070248;28;20195;-73
2022/04/20 03:50:00;;;;;;;31.83;16.90;;;;;;;5.72;100.00;99979.66;5070585;28;20260;-73
2022/04/20 03:52:27;;;;;;;24.97;15.80;;;;;;;6.38;100.00;99976.66;5035069;28;20198;-74
2022/04/20 03:54:55;;;;;;;19.70;13.53;;;;;;;6.63;100.00;99985.09;5071217;28;20226;-75
2022/04/20 03:57:22;;;;;;;25.37;13.57;;;;;;;6.73;100.00;99985.41;5070719;28;20615;-75
2022/04/20 03:59:49;;;;;;;22.13;13.33;;;;;;;7.11;100.00;99999.34;5071071;28;20234;-75
2022/04/20 04:02:17;;;;;;;23.70;15.23;;;;;;;7.39;100.00;99994.09;5070665;28;20199;-73
2022/04/20 04:04:44;;;;;;;22.23;13.43;;;;;;;7.74;100.00;99999.31;5070626;28;20191;-74
2022/04/20 04:07:11;;;;;;;15.90;10.50;;;;;;;7.76;100.00;100003.66;5070642;28;20674;-76
2022/04/20 04:09:38;;;;;;;15.73;10.18;;;;;;;7.72;100.00;100011.28;5071072;28;20987;-73
2022/04/20 04:12:07;;;;;;;14.30;10.32;;;;;;;7.81;100.00;100007.22;5070675;28;20238;-75
2022/04/20 04:14:38;;;;;;;11.87;8.90;;;;;;;7.87;100.00;100011.66;5070604;28;20206;-72
2022/04/20 04:17:05;;;;;;;11.33;8.87;;;;;;;7.73;100.00;99982.94;5051298;28;20219;-75
2022/04/20 04:19:32;;;;;;;11.07;8.50;;;;;;;7.80;100.00;100009.78;5070436;28;20226;-75
2022/04/20 04:21:59;;;;;;;14.57;9.10;;;;;;;7.74;100.00;100015.63;5070278;28;20286;-73
2022/04/20 04:24:39;;;;;;;10.30;8.23;;;;;;;7.98;100.00;100008.50;5070507;28;20195;-75
2022/04/20 04:27:08;;;;;;;7.05;6.35;;;;;;;8.12;100.00;100000.22;5070090;28;20209;-74
2022/04/20 04:29:36;;;;;;;8.43;6.93;;;;;;;8.21;100.00;100021.94;5070250;28;20213;-73
2022/04/20 04:32:02;;;;;;;15.82;9.00;;;;;;;8.50;100.00;100011.44;5070564;28;20210;-75
2022/04/20 04:34:30;;;;;;;27.33;13.95;;;;;;;9.45;100.00;100000.47;5070108;28;20226;-74
2022/04/20 04:36:57;;;;;;;16.70;9.57;;;;;;;9.80;100.00;100024.38;5069824;28;20203;-74
2022/04/20 04:39:28;;;;;;;10.43;7.43;;;;;;;10.03;100.00;99993.66;5074364;28;20647;-75
2022/04/20 04:41:56;;;;;;;11.55;8.20;;;;;;;10.17;100.00;100010.31;5074051;28;20203;-74
2022/04/20 04:44:24;;;;;;;17.58;10.73;;;;;;;10.44;100.00;99998.66;5074463;28;20194;-75
2022/04/20 04:49:35;;;;;;;16.02;9.70;;;;;;;11.10;99.62;100021.09;5074066;28;20299;-74
2022/04/20 04:52:02;;;;;;;18.75;9.45;;;;;;;11.40;95.80;100015.38;5021863;28;20206;-74
2022/04/20 04:54:30;;;;;;;13.18;8.45;;;;;;;11.34;87.99;100023.13;5074110;28;20201;-75
2022/04/20 04:56:56;;;;;;;14.60;7.07;;;;;;;11.42;88.23;100019.72;5073483;28;20659;-73
2022/04/20 04:59:25;;;;;;;16.40;7.97;;;;;;;11.47;86.97;100016.31;5074253;28;20218;-73
2022/04/20 05:01:51;;;;;;;14.73;9.15;;;;;;;11.26;86.47;100022.16;5073740;28;20190;-73
2022/04/20 05:04:19;;;;;;;12.15;7.80;;;;;;;11.16;89.71;100007.34;5074012;28;20271;-75
2022/04/20 05:06:47;;;;;;;13.05;7.30;;;;;;;11.62;89.02;100013.88;5073773;28;20199;-74
2022/04/20 05:09:14;;;;;;;18.67;9.30;;;;;;;12.03;87.12;100015.13;5038625;28;20273;-74
2022/04/20 05:11:40;;;;;;;17.55;10.00;;;;;;;11.79;89.65;100008.00;5073580;28;20222;-73
2022/04/20 05:14:07;;;;;;;28.08;12.55;;;;;;;11.76;92.49;100009.72;5073659;28;20639;-73
2022/04/20 05:16:35;;;;;;;24.02;12.45;;;;;;;12.05;93.25;100000.44;5073915;28;20228;-76
2022/04/20 05:19:02;;;;;;;19.58;12.93;;;;;;;13.11;100.00;99993.25;5075014;28;20691;-74
2022/04/20 05:21:29;;;;;;;29.27;12.35;;;;;;;13.60;92.54;99994.22;5020156;28;20200;-76
2022/04/20 05:23:58;;;;;;;20.00;11.43;;;;;;;13.96;80.81;99993.38;5073511;28;20207;-73
2022/04/20 05:26:25;;;;;;;16.85;9.48;;;;;;;14.06;73.06;100010.75;5073585;28;20301;-73
2022/04/20 05:28:52;;;;;;;18.17;9.00;;;;;;;14.15;71.62;100008.16;5021600;28;20278;-73
2022/04/20 05:31:19;;;;;;;17.30;8.90;;;;;;;12.66;76.11;100009.50;5073251;28;20195;-73
2022/04/20 05:33:49;;;;;;;16.95;8.70;;;;;;;12.23;87.66;100017.91;5073446;28;20203;-74
2022/04/20 05:36:18;;;;;;;13.30;9.05;;;;;;;11.76;94.91;100027.91;5073448;28;20206;-73
2022/04/20 05:41:41;;;;;;;17.63;10.10;;;;;;;11.22;100.00;100025.56;5073394;28;20209;-73
2022/04/20 05:44:08;;;;;;;25.15;10.75;;;;;;;10.92;100.00;100005.31;5072874;28;20197;-74
2022/04/20 05:46:35;;;;;;;22.20;9.63;;;;;;;10.57;100.00;100023.00;5073483;28;20299;-74
2022/04/20 05:49:04;;;;;;;15.13;9.48;;;;;;;9.61;100.00;100015.41;5037307;28;20213;-74
2022/04/20 05:51:31;;;;;;;16.63;10.15;;;;;;;9.85;100.00;100031.34;5073284;28;20203;-74
2022/04/20 05:53:58;;;;;;;18.45;10.20;;;;;;;9.37;100.00;100023.59;5073048;28;20257;-74
2022/04/20 05:56:25;;;;;;;14.07;8.85;;;;;;;9.08;100.00;100017.00;5073425;28;20210;-73
2022/04/20 05:58:52;;;;;;;20.70;12.13;;;;;;;9.33;100.00;100016.63;5072594;28;20226;-74
2022/04/20 06:01:22;;;;;;;14.32;10.32;;;;;;;9.44;100.00;100006.47;5072525;28;20206;-74
2022/04/20 06:03:49;;;;;;;18.30;11.18;;;;;;;9.42;100.00;100019.38;5022000;28;20252;-74
2022/04/20 06:06:18;;;;;;;18.13;10.65;;;;;;;9.68;100.00;100013.78;5072467;28;20195;-73
2022/04/20 06:08:44;;;;;;;16.88;10.23;;;;;;;9.75;100.00;99982.84;5072281;28;20683;-74
2022/04/20 06:11:12;;;;;;;18.75;9.13;;;;;;;10.20;100.00;100002.59;5072035;28;20199;-74
2022/04/20 06:13:39;;;;;;;7.03;5.93;;;;;;;10.43;100.00;100007.25;5072432;28;20234;-74
2022/04/20 06:16:07;;;;;;;5.38;4.88;;;;;;;10.29;100.00;99914.63;5036651;28;20202;-76
2022/04/20 06:18:34;;;;;;;11.88;8.15;;;;;;;10.67;100.00;99998.94;5020903;28;20635;-74
2022/04/20 06:21:01;;;;;;;4.18;3.58;;;;;;;10.41;91.97;99996.03;5020323;28;20713;-74
2022/04/20 06:23:30;;;;;;;5.68;4.68;;;;;;;10.67;89.12;99992.88;5072124;28;20191;-77
2022/04/20 06:25:57;;;;;;;6.32;4.35;;;;;;;11.14;94.00;99996.06;5071784;28;20675;-73
2022/04/20 06:28:25;;;;;;;3.30;2.40;;;;;;;11.13;77.39;99984.81;5036836;28;20254;-73
2022/04/20 06:30:53;;;;;;;3.88;2.70;;;;;;;11.85;72.77;99989.00;5072094;28;20281;-73
2022/04/20 06:33:21;;;;;;;3.63;3.28;;;;;;;12.03;71.35;99990.88;5072087;28;20286;-74
2022/04/20 06:35:48;;;;;;;3.42;3.13;;;;;;;12.09;67.04;99942.44;5071584;28;20227;-73
2022/04/20 06:38:16;;;;;;;9.93;3.28;;;;;;;12.64;68.05;99989.53;5071760;28;20202;-75
2022/04/20 06:40:44;;;;;;;70.53;27.92;;;;;;;13.04;100.00;99991.47;5019891;28;20696;-75
2022/04/20 06:43:11;;;;;;;6.60;4.88;;;;;;;12.70;86.34;99969.63;5071614;28;20206;-75
2022/04/20 06:45:38;;;;;;;11.45;5.60;;;;;;;13.30;80.35;99942.97;5071602;28;20226;-76
2022/04/20 06:48:05;;;;;;;3.40;2.80;;;;;;;13.15;66.96;99974.19;5071552;28;20466;-76
2022/04/20 06:50:32;;;;;;;2.47;2.38;;;;;;;13.05;68.18;99981.91;5071407;28;20195;-78
2022/04/20 06:58:36;;;;;;;11.20;6.95;;;;;;;14.52;71.52;99976.84;4989577;28;20337;-76
2022/04/20 07:01:05;;;;;;;3.45;3.25;;;;;;;14.73;62.85;99979.38;4988796;28;20229;-73
2022/04/20 07:03:33;;;;;;;3.95;2.72;;;;;;;13.70;59.12;99976.84;4989635;28;20301;-73
2022/04/20 07:06:00;;;;;;;3.42;3.22;;;;;;;13.17;59.88;99982.84;4989581;28;20225;-72
2022/04/20 07:08:27;;;;;;;7.38;2.80;;;;;;;12.50;59.85;99978.19;4989366;28;20197;-73
2022/04/20 07:10:55;;;;;;;7.65;3.53;;;;;;;12.87;58.39;99983.59;4989580;28;20202;-72
2022/04/20 07:13:22;;;;;;;3.72;3.13;;;;;;;13.02;60.02;99981.91;4989425;28;20198;-73
2022/04/20 07:15:49;;;;;;;2.53;2.40;;;;;;;12.81;59.11;99946.25;4989293;28;20620;-73
2022/04/20 07:18:16;;;;;;;2.55;2.40;;;;;;;13.09;58.73;99978.47;4989380;28;20259;-73
2022/04/20 07:20:43;;;;;;;2.25;2.15;;;;;;;12.84;59.31;99982.72;4989410;28;20269;-73
2022/04/20 07:23:11;;;;;;;3.28;2.90;;;;;;;13.12;59.99;99970.69;4989406;28;20303;-73
2022/04/20 07:25:38;;;;;;;2.63;2.42;;;;;;;13.73;57.76;99976.88;4989372;28;20693;-73
2022/04/20 07:28:07;;;;;;;4.75;3.15;;;;;;;13.84;57.80;99975.16;4989025;28;20209;-73
2022/04/20 07:30:34;;;;;;;3.08;2.38;;;;;;;13.48;56.43;99968.19;4956725;28;20705;-73
2022/04/20 07:33:02;;;;;;;2.53;2.42;;;;;;;12.93;57.37;99980.13;5049373;28;20194;-72
2022/04/20 07:35:29;;;;;;;3.33;2.80;;;;;;;12.30;58.20;99965.97;5070927;28;20264;-73
2022/04/20 07:37:56;;;;;;;2.75;2.55;;;;;;;13.10;58.37;99964.59;5070691;28;20194;-73
2022/04/20 07:40:23;;;;;;;5.47;2.90;;;;;;;13.21;56.29;99961.16;5018775;28;20222;-73
2022/04/20 07:42:53;;;;;;;4.97;2.65;;;;;;;13.71;55.29;99973.38;5070767;28;20203;-73
2022/04/20 07:45:25;;;;;;;1.73;1.63;;;;;;;13.44;52.91;99944.72;5070357;28;20218;-74
2022/04/20 07:47:53;;;;;;;2.45;2.30;;;;;;;13.38;54.77;99948.16;5070492;28;20199;-73
2022/04/20 07:50:21;;;;;;;2.55;2.45;;;;;;;13.41;55.00;99961.22;5070429;28;20234;-73
2022/04/20 07:52:50;;;;;;;2.85;2.55;;;;;;;13.86;55.07;99970.78;5070467;28;20203;-72
2022/04/20 07:55:19;;;;;;;4.28;2.83;;;;;;;13.44;53.64;99872.66;5070252;28;20289;-72
2022/04/20 07:57:46;;;;;;;7.57;2.80;;;;;;;13.69;54.75;99962.13;5070800;28;20222;-74
2022/04/20 08:00:15;;;;;;;3.28;3.08;;;;;;;14.27;55.81;99953.34;5070366;28;20230;-73
2022/04/20 08:02:44;;;;;;;4.03;3.72;;;;;;;14.76;55.34;99961.09;5070459;28;20308;-74
2022/04/20 08:05:12;;;;;;;5.82;3.58;;;;;;;15.28;51.97;99970.41;5070629;28;20224;-73
2022/04/20 08:07:39;;;;;;;3.00;2.80;;;;;;;15.06;50.09;99978.34;5070308;28;20209;-73
2022/04/20 08:10:07;;;;;;;3.47;2.97;;;;;;;14.76;53.22;99974.16;5070173;28;20671;-73
2022/04/20 08:12:38;;;;;;;3.35;3.15;;;;;;;14.18;53.34;99971.66;5070084;28;20195;-72
2022/04/20 08:15:07;;;;;;;3.50;3.30;;;;;;;14.17;54.26;99971.63;5070176;28;20506;-74
2022/04/20 08:17:34;;;;;;;4.30;3.90;;;;;;;14.46;54.59;99975.09;5070193;28;20623;-74
2022/04/20 08:20:03;;;;;;;2.70;2.40;;;;;;;13.84;54.53;99969.94;5070453;28;20226;-73
2022/04/20 08:22:30;;;;;;;2.78;2.58;;;;;;;13.81;55.91;99957.75;5069662;28;20206;-73
2022/04/20 08:24:57;;;;;;;2.90;2.70;;;;;;;12.95;56.27;99975.78;5070025;28;20670;-74
2022/04/20 08:27:24;;;;;;;4.05;2.92;;;;;;;13.19;70.69;99955.09;5069693;28;20199;-73
2022/04/20 08:29:52;;;;;;;5.05;3.80;;;;;;;13.28;58.76;99962.03;5070257;28;20579;-73
2022/04/20 08:32:19;;;;;;;2.83;2.63;;;;;;;13.08;59.28;99963.72;5034744;28;20235;-73
2022/04/20 08:34:48;;;;;;;6.70;3.30;;;;;;;13.18;59.89;99958.56;5070243;28;20265;-74
2022/04/20 08:37:17;;;;;;;3.35;2.92;;;;;;;12.61;59.89;99955.72;5070226;28;20191;-74
2022/04/20 08:39:44;;;;;;;2.95;2.75;;;;;;;12.80;60.25;99965.34;5069931;28;20317;-73
2022/04/20 08:42:12;;;;;;;4.53;3.38;;;;;;;13.19;59.74;99960.31;5069844;28;20679;-72
2022/04/20 08:44:44;;;;;;;4.03;3.60;;;;;;;13.44;60.96;99960.34;4986257;28;20228;-73
2022/04/20 08:47:16;;;;;;;4.05;3.63;;;;;;;13.57;60.26;99957.75;5069780;28;20626;-73
2022/04/20 08:49:44;;;;;;;4.93;3.28;;;;;;;13.61;58.38;99943.00;5069579;28;20672;-73
2022/04/20 08:54:58;;;;;;;5.20;3.80;;;;;;;13.61;61.32;99964.72;5069784;28;20293;-74
2022/04/20 08:57:26;;;;;;;6.15;4.05;;;;;;;14.19;60.07;99956.88;5069680;28;20191;-74
2022/04/20 08:59:54;;;;;;;6.00;4.07;;;;;;;14.41;62.52;99961.22;5069603;28;20226;-75
2022/04/20 09:02:24;;;;;;;15.18;5.18;;;;;;;13.70;62.39;99951.66;5017513;28;20197;-74
2022/04/20 09:04:51;;;;;;;6.93;3.45;;;;;;;13.22;62.55;99962.91;5069797;28;20199;-75
2022/04/20 09:07:19;;;;;;;5.45;3.58;;;;;;;13.33;64.97;99962.94;5069538;28;20191;-73
2022/04/20 09:09:46;;;;;;;5.43;3.85;;;;;;;13.61;62.65;99966.44;5069895;28;20210;-76
2022/04/20 09:12:18;;;;;;;3.70;3.40;;;;;;;13.57;65.42;99943.84;5069524;28;20195;-73
2022/04/20 09:14:48;;;;;;;6.28;3.58;;;;;;;13.08;67.02;99975.00;5069331;28;20210;-73
2022/04/20 09:17:17;;;;;;;3.90;3.47;;;;;;;13.26;64.23;99967.28;5069642;28;20191;-73
2022/04/20 09:19:45;;;;;;;4.28;3.03;;;;;;;13.20;63.83;99962.03;5069322;28;20309;-73
2022/04/20 09:22:20;;;;;;;4.20;3.90;;;;;;;13.31;65.61;99936.00;5069718;28;20234;-75
2022/04/20 09:24:58;;;;;;;3.00;2.65;;;;;;;13.41;63.01;99943.84;5072742;28;20199;-74
2022/04/20 09:27:27;;;;;;;3.97;3.67;;;;;;;13.26;63.60;99862.25;5078335;28;20721;-72
2022/04/20 09:29:55;;;;;;;5.00;4.40;;;;;;;13.87;64.03;99964.72;5074323;28;20198;-77
2022/04/20 09:32:32;;;;;;;3.97;3.63;;;;;;;13.34;63.05;99968.13;5072798;28;20534;-76
2022/04/20 09:34:59;;;;;;;6.50;3.47;;;;;;;14.11;62.03;99956.88;5021535;28;20225;-73
2022/04/20 09:37:26;;;;;;;6.53;4.15;;;;;;;14.50;59.91;99955.09;5021404;28;20194;-73
2022/04/20 09:39:54;;;;;;;3.80;3.50;;;;;;;14.86;58.37;99960.19;5072968;28;20222;-74
2022/04/20 09:42:22;;;;;;;7.32;3.90;;;;;;;14.33;58.88;99942.94;5073051;28;20203;-74
2022/04/20 09:44:55;;;;;;;5.88;3.53;;;;;;;14.48;59.28;99949.88;5021356;28;20199;-74
2022/04/20 09:50:08;;;;;;;3.22;2.95;;;;;;;13.55;58.25;99927.38;5072733;28;20205;-74
2022/04/20 09:52:39;;;;;;;4.97;3.58;;;;;;;14.91;64.48;99936.66;5073181;28;20203;-75
2022/04/20 09:55:07;;;;;;;3.85;2.97;;;;;;;14.21;59.08;99948.16;5072776;28;20195;-73
2022/04/20 09:57:36;;;;;;;4.20;3.25;;;;;;;14.80;56.70;99936.72;5072714;28;20206;-74
2022/04/20 10:00:10;;;;;;;4.90;3.28;;;;;;;14.75;57.02;99946.28;5072616;28;20593;-75
2022/04/20 10:02:45;;;;;;;4.50;3.92;;;;;;;14.73;55.28;99942.84;5072389;28;20191;-74
2022/04/20 10:05:12;;;;;;;4.22;3.22;;;;;;;14.88;56.83;99935.78;5072515;28;20199;-74
2022/04/20 10:07:39;;;;;;;3.92;3.60;;;;;;;14.92;55.63;99941.00;5072626;28;20194;-74
2022/04/20 10:10:07;;;;;;;3.00;2.80;;;;;;;14.63;54.72;99907.19;5072604;28;20593;-76
2022/04/20 10:12:38;;;;;;;3.13;2.90;;;;;;;14.79;52.81;99928.00;5072391;28;20252;-73
2022/04/20 10:17:56;;;;;;;5.10;3.17;;;;;;;14.74;52.59;99910.63;5028504;28;20596;-74
2022/04/20 10:20:25;;;;;;;4.25;3.20;;;;;;;14.93;52.87;99925.34;5021246;28;20288;-75
2022/04/20 10:22:53;;;;;;;3.63;2.60;;;;;;;14.38;53.24;99929.88;5072331;28;20570;-74
2022/04/20 10:25:20;;;;;;;3.28;2.97;;;;;;;14.34;51.79;99913.38;5072116;28;20199;-73
2022/04/20 10:28:11;;;;;;;3.25;3.00;;;;;;;15.08;50.50;99927.00;5071530;28;20195;-74
2022/04/20 10:30:52;;;;;;;4.50;3.30;;;;;;;15.66;49.65;99930.13;4990248;28;20689;-73
2022/04/20 10:33:20;;;;;;;2.78;2.58;;;;;;;15.11;51.12;99930.47;4990269;28;20642;-74
2022/04/20 10:35:57;;;;;;;3.28;2.97;;;;;;;14.79;52.60;99932.38;4990041;28;20717;-74
2022/04/20 10:38:25;;;;;;;3.05;2.83;;;;;;;14.99;50.03;99912.25;4990245;28;20569;-74
2022/04/20 10:41:13;;;;;;;2.83;2.53;;;;;;;15.38;50.11;99929.41;4990054;28;20769;-78
2022/04/20 10:43:42;;;;;;;2.47;2.10;;;;;;;15.51;46.99;99925.00;4951618;28;20672;-74
2022/04/20 10:46:15;;;;;;;2.67;2.47;;;;;;;15.46;47.40;99931.97;4951523;28;20213;-74
2022/04/20 10:48:51;;;;;;;3.63;2.70;;;;;;;15.28;46.90;99928.59;4951357;29;20199;-73
2022/04/20 10:51:22;;;;;;;2.25;2.10;;;;;;;15.79;44.86;99930.00;4951481;29;20731;-74
2022/04/20 10:53:50;;;;;;;2.78;2.58;;;;;;;16.21;44.35;99914.78;4951254;28;20221;-73
2022/04/20 10:56:18;;;;;;;3.10;2.90;;;;;;;15.77;46.53;99923.91;4951309;28;20202;-74
2022/04/20 10:58:53;;;;;;;3.15;2.83;;;;;;;15.77;48.38;99920.41;4951149;29;20199;-73
2022/04/20 11:01:21;;;;;;;3.03;2.15;;;;;;;16.03;46.35;99926.28;4950928;28;20667;-75
2022/04/20 11:04:10;;;;;;;3.00;2.67;;;;;;;15.74;47.25;99920.44;4951033;28;20215;-76
2022/04/20 11:07:15;;;;;;;5.50;3.08;;;;;;;15.79;53.15;99923.91;4878972;29;20208;-76
2022/04/20 11:10:05;;;;;;;3.35;3.05;;;;;;;15.87;48.41;99924.72;4912936;29;20294;-73
2022/04/20 11:18:39;;;;;;;2.85;2.65;;;;;;;15.23;47.38;99888.56;4875298;29;20254;-73
2022/04/20 11:21:13;;;;;;;2.60;2.40;;;;;;;15.26;47.52;99929.50;4912901;29;20746;-73
2022/04/20 11:23:58;;;;;;;3.75;3.42;;;;;;;15.32;47.67;99890.25;4932473;29;20231;-73
2022/04/20 11:26:28;;;;;;;3.75;3.22;;;;;;;15.20;49.87;99925.16;4934337;29;20199;-73
2022/04/20 11:28:55;;;;;;;6.82;3.42;;;;;;;15.00;50.62;99919.19;4934064;29;20195;-74
2022/04/20 11:31:23;;;;;;;3.67;3.38;;;;;;;14.61;51.89;99920.25;4932051;29;20206;-75
2022/04/20 11:33:52;;;;;;;4.30;3.90;;;;;;;14.66;53.34;99922.88;4931930;29;20243;-75
2022/04/20 11:36:19;;;;;;;4.78;3.70;;;;;;;14.31;54.07;99905.53;4931316;29;20816;-74
2022/04/20 11:38:48;;;;;;;8.20;4.03;;;;;;;14.60;54.01;99909.81;4931601;29;20209;-73
2022/04/20 11:41:16;;;;;;;6.47;4.68;;;;;;;14.68;54.71;99887.16;4931285;29;20259;-74
2022/04/20 11:43:44;;;;;;;6.65;4.43;;;;;;;14.97;55.39;99910.53;4973097;28;20350;-74
2022/04/20 11:46:13;;;;;;;10.63;5.18;;;;;;;14.53;54.66;99890.72;5008284;28;20208;-75
2022/04/20 11:48:50;;;;;;;6.10;4.00;;;;;;;14.01;56.44;99913.44;5027946;28;20226;-73
2022/04/20 11:51:21;;;;;;;7.03;4.35;;;;;;;13.89;58.42;99918.66;5070546;28;20198;-72
2022/04/20 11:53:48;;;;;;;7.25;4.57;;;;;;;14.21;59.14;99901.22;5070469;28;20223;-74
2022/04/20 11:56:15;;;;;;;4.97;3.72;;;;;;;13.99;57.92;99903.88;5051638;28;20203;-73
2022/04/20 11:58:48;;;;;;;2.63;2.53;;;;;;;13.94;51.86;99910.84;5070199;28;20203;-74
2022/04/20 12:01:15;;;;;;;3.25;3.05;;;;;;;14.35;50.57;99902.09;5069972;28;20261;-73
2022/04/20 12:03:43;;;;;;;3.35;3.15;;;;;;;14.64;48.99;99898.50;5070315;28;20194;-74